Create Tblcommutelog Verified Points Advance Search
| # | Trip ID | Id Commuter | Trip Date | Trip Num | Current Lat | Current Lng | Delta Distance | Current Time | Activity | Activity Confidence | Current Speed | |
|---|---|---|---|---|---|---|---|---|---|---|---|---|
| 69781 | 250328_777261_16513230_0745 | 777261 | (not set) | (not set) | 38.998743390807 | -76.918987456033 | 0.2152 | 2025-03-28 11:47:03.377 | on_bicycle | 100 | 2.6688243761567 | |
| 69782 | 250328_781297_16450797_0657 | 781297 | (not set) | (not set) | 39.037870202307 | -76.989818294508 | 12.2596 | 2025-03-28 11:47:05.43 | in_vehicle | 100 | 4.5732116194444 | |
| 69783 | 250328_729627_16497344_0655 | 729627 | (not set) | (not set) | 38.916258767622 | -77.191637632006 | 23.2643 | 2025-03-28 11:47:06.395 | in_vehicle | 100 | 11.108925585845 | |
| 69784 | 250328_705032_16478898_0740 | 705032 | (not set) | (not set) | 39.143654936669 | -77.238632962131 | 2.0211 | 2025-03-28 11:47:08.467 | in_vehicle | 100 | 6.5625363219398 | |
| 69785 | 250328_781890_16477994_0729 | 781890 | (not set) | (not set) | 39.102173040335 | -77.522648177794 | 1.3534 | 2025-03-28 11:47:09.338 | in_vehicle | 100 | 8.1987000098349 | |
| 69786 | 250328_781299_16513152_0719 | 781299 | (not set) | (not set) | 38.897982820494 | -77.007268912058 | 8.1582 | 2025-03-28 11:47:09.539 | in_vehicle | 100 | -0.44703925898772 | |
| 69787 | 250328_705032_16478898_0740 | 705032 | (not set) | (not set) | 39.146134186234 | -77.228550639451 | 2.8031 | 2025-03-28 11:49:36.754 | in_vehicle | 100 | 0 | |
| 69788 | 250328_729627_16497344_0655 | 729627 | (not set) | (not set) | 38.896694913685 | -77.174339994056 | 25.1937 | 2025-03-28 11:49:41.398 | in_vehicle | 100 | 9.3341797276637 | |
| 69789 | 250328_769852_16513578_0741 | 769852 | (not set) | (not set) | 39.033147651214 | -77.121424127707 | 2.9508 | 2025-03-28 11:49:45.242 | in_vehicle | 100 | 2.8610512575214 | |
| 69790 | 250328_738572_16489587_0659 | 738572 | (not set) | (not set) | 38.917536311603 | -76.926346335855 | 16.0504 | 2025-03-28 11:49:45.307 | in_vehicle | 100 | 5.172244226488 | |
| 69791 | 250328_783029_6431355_0715 | 783029 | (not set) | (not set) | 38.893230389975 | -77.029761791978 | 7.556 | 2025-03-28 11:49:48.171 | on_foot | 100 | 0.50515436265613 | |
| 69792 | 250328_776287_16511635_0731 | 776287 | (not set) | (not set) | 38.877252265379 | -77.037251230859 | 3.9152 | 2025-03-28 11:49:49.263 | in_vehicle | 100 | 4.3720439528999 | |
| 69793 | 250328_781890_16477994_0729 | 781890 | (not set) | (not set) | 39.109724884813 | -77.536363093484 | 2.2562 | 2025-03-28 11:49:52.172 | in_vehicle | 100 | 7.5639042620723 | |
| 69794 | 250328_763194_16506491_0745 | 763194 | (not set) | (not set) | 39.305891413018 | -76.612112747098 | 0.7107 | 2025-03-28 11:49:52.225 | on_foot | 100 | 1.8507425322092 | |
| 69795 | 250328_729627_16497344_0655 | 729627 | (not set) | (not set) | 38.895669967733 | -77.171699186978 | 25.3527 | 2025-03-28 11:49:52.379 | in_vehicle | 100 | 10.791527711964 | |
| 69796 | 250328_769852_16513578_0741 | 769852 | (not set) | (not set) | 39.032753208083 | -77.120368815281 | 3.0138 | 2025-03-28 11:49:53.296 | in_vehicle | 100 | 6.6787665292766 | |
| 69797 | 250328_780266_16484290_0733 | 780266 | (not set) | (not set) | 38.898140213627 | -77.023892661058 | 3.2682 | 2025-03-28 11:49:56.006 | in_vehicle | 100 | -0.44703925898772 | |
| 69798 | 250328_780266_16484290_0733 | 780266 | (not set) | (not set) | 38.898140213627 | -77.023892661058 | 3.2682 | 2025-03-28 11:49:56.012 | in_vehicle | 100 | -0.44703925898772 | |
| 69799 | 250328_753586_16500033_0732 | 753586 | (not set) | (not set) | 38.912622173799 | -77.006340443821 | 2.0272 | 2025-03-28 11:49:56.322 | in_vehicle | 100 | 2.3782488578147 | |
| 69800 | 250328_738572_16489587_0659 | 738572 | (not set) | (not set) | 38.917887369831 | -76.928051423685 | 16.1455 | 2025-03-28 11:49:58.277 | still | 33 | 5.4136454263413 |